sensor_id;sensor_type;location;lat;lon;timestamp;P1;durP1;ratioP1;P2;durP2;ratioP2
34184;SDS011;20454;48.100;11.776;2023-02-15T00:01:47;12.75;;;10.23;;
34184;SDS011;20454;48.100;11.776;2023-02-15T00:04:14;14.30;;;11.13;;
34184;SDS011;20454;48.100;11.776;2023-02-15T00:06:43;13.35;;;9.43;;
34184;SDS011;20454;48.100;11.776;2023-02-15T00:09:09;12.43;;;10.57;;
34184;SDS011;20454;48.100;11.776;2023-02-15T00:11:36;14.77;;;11.68;;
34184;SDS011;20454;48.100;11.776;2023-02-15T00:14:12;13.65;;;11.65;;
34184;SDS011;20454;48.100;11.776;2023-02-15T00:16:40;12.73;;;11.30;;
34184;SDS011;20454;48.100;11.776;2023-02-15T00:19:09;12.35;;;10.77;;
34184;SDS011;20454;48.100;11.776;2023-02-15T00:21:36;19.58;;;12.38;;
34184;SDS011;20454;48.100;11.776;2023-02-15T00:24:04;12.40;;;11.13;;
34184;SDS011;20454;48.100;11.776;2023-02-15T00:26:32;11.20;;;9.90;;
34184;SDS011;20454;48.100;11.776;2023-02-15T00:28:59;13.98;;;11.10;;
34184;SDS011;20454;48.100;11.776;2023-02-15T00:31:25;10.02;;;8.70;;
34184;SDS011;20454;48.100;11.776;2023-02-15T00:34:00;14.60;;;11.52;;
34184;SDS011;20454;48.100;11.776;2023-02-15T00:36:56;13.45;;;10.20;;
34184;SDS011;20454;48.100;11.776;2023-02-15T00:39:22;11.38;;;10.07;;
34184;SDS011;20454;48.100;11.776;2023-02-15T00:41:48;12.73;;;10.40;;
34184;SDS011;20454;48.100;11.776;2023-02-15T00:44:15;9.73;;;8.57;;
34184;SDS011;20454;48.100;11.776;2023-02-15T00:46:41;12.32;;;9.90;;
34184;SDS011;20454;48.100;11.776;2023-02-15T00:49:07;10.45;;;9.18;;
34184;SDS011;20454;48.100;11.776;2023-02-15T00:51:32;10.35;;;8.63;;
34184;SDS011;20454;48.100;11.776;2023-02-15T00:53:58;12.88;;;10.15;;
34184;SDS011;20454;48.100;11.776;2023-02-15T00:56:24;10.45;;;8.68;;
34184;SDS011;20454;48.100;11.776;2023-02-15T00:58:50;10.10;;;8.95;;
34184;SDS011;20454;48.100;11.776;2023-02-15T01:01:17;16.55;;;8.80;;
34184;SDS011;20454;48.100;11.776;2023-02-15T01:03:45;10.50;;;9.48;;
34184;SDS011;20454;48.100;11.776;2023-02-15T01:06:11;11.40;;;9.35;;
34184;SDS011;20454;48.100;11.776;2023-02-15T01:08:39;10.75;;;9.15;;
34184;SDS011;20454;48.100;11.776;2023-02-15T01:11:06;11.73;;;9.07;;
34184;SDS011;20454;48.100;11.776;2023-02-15T01:13:40;11.10;;;9.55;;
34184;SDS011;20454;48.100;11.776;2023-02-15T01:16:06;9.43;;;8.32;;
34184;SDS011;20454;48.100;11.776;2023-02-15T01:18:33;13.20;;;8.43;;
34184;SDS011;20454;48.100;11.776;2023-02-15T01:20:59;8.77;;;7.85;;
34184;SDS011;20454;48.100;11.776;2023-02-15T01:23:25;11.68;;;9.00;;
34184;SDS011;20454;48.100;11.776;2023-02-15T01:25:51;9.20;;;8.23;;
34184;SDS011;20454;48.100;11.776;2023-02-15T01:28:17;11.20;;;9.60;;
34184;SDS011;20454;48.100;11.776;2023-02-15T01:30:42;9.82;;;8.57;;
34184;SDS011;20454;48.100;11.776;2023-02-15T01:33:09;11.32;;;10.10;;
34184;SDS011;20454;48.100;11.776;2023-02-15T01:35:42;10.68;;;8.45;;
34184;SDS011;20454;48.100;11.776;2023-02-15T01:38:10;9.48;;;7.60;;
34184;SDS011;20454;48.100;11.776;2023-02-15T01:40:37;10.82;;;9.60;;
34184;SDS011;20454;48.100;11.776;2023-02-15T01:43:07;10.23;;;9.10;;
34184;SDS011;20454;48.100;11.776;2023-02-15T01:45:36;8.90;;;7.93;;
34184;SDS011;20454;48.100;11.776;2023-02-15T01:48:17;9.82;;;8.82;;
34184;SDS011;20454;48.100;11.776;2023-02-15T01:50:51;9.95;;;8.23;;
34184;SDS011;20454;48.100;11.776;2023-02-15T01:53:30;12.02;;;10.68;;
34184;SDS011;20454;48.100;11.776;2023-02-15T01:59:03;9.80;;;7.68;;
34184;SDS011;20454;48.100;11.776;2023-02-15T02:01:34;9.95;;;8.90;;
34184;SDS011;20454;48.100;11.776;2023-02-15T02:04:09;14.35;;;9.73;;
34184;SDS011;20454;48.100;11.776;2023-02-15T02:06:51;12.40;;;9.82;;
34184;SDS011;20454;48.100;11.776;2023-02-15T02:09:17;9.90;;;8.55;;
34184;SDS011;20454;48.100;11.776;2023-02-15T02:11:44;9.15;;;7.65;;
34184;SDS011;20454;48.100;11.776;2023-02-15T02:14:12;12.13;;;9.60;;
34184;SDS011;20454;48.100;11.776;2023-02-15T02:22:18;13.32;;;11.25;;
34184;SDS011;20454;48.100;11.776;2023-02-15T02:25:46;11.15;;;9.68;;
34184;SDS011;20454;48.100;11.776;2023-02-15T02:43:33;14.50;;;10.70;;
34184;SDS011;20454;48.100;11.776;2023-02-15T02:49:10;18.13;;;11.02;;
34184;SDS011;20454;48.100;11.776;2023-02-15T02:51:37;13.15;;;10.38;;
34184;SDS011;20454;48.100;11.776;2023-02-15T02:54:04;13.70;;;9.93;;
34184;SDS011;20454;48.100;11.776;2023-02-15T02:59:15;15.40;;;10.63;;
34184;SDS011;20454;48.100;11.776;2023-02-15T09:01:07;14.23;;;11.67;;
34184;SDS011;20454;48.100;11.776;2023-02-15T09:03:49;16.08;;;10.85;;
34184;SDS011;20454;48.100;11.776;2023-02-15T09:06:20;13.13;;;9.93;;
34184;SDS011;20454;48.100;11.776;2023-02-15T09:08:47;13.30;;;10.73;;
34184;SDS011;20454;48.100;11.776;2023-02-15T09:11:14;15.45;;;11.50;;
34184;SDS011;20454;48.100;11.776;2023-02-15T09:13:47;13.40;;;10.07;;
34184;SDS011;20454;48.100;11.776;2023-02-15T09:16:39;10.43;;;9.00;;
34184;SDS011;20454;48.100;11.776;2023-02-15T09:19:07;11.93;;;9.95;;
34184;SDS011;20454;48.100;11.776;2023-02-15T09:21:34;13.25;;;10.45;;
34184;SDS011;20454;48.100;11.776;2023-02-15T09:24:03;10.57;;;9.48;;
34184;SDS011;20454;48.100;11.776;2023-02-15T09:26:33;10.00;;;8.93;;
34184;SDS011;20454;48.100;11.776;2023-02-15T09:29:01;9.20;;;8.05;;
34184;SDS011;20454;48.100;11.776;2023-02-15T09:31:29;10.90;;;9.80;;
34184;SDS011;20454;48.100;11.776;2023-02-15T09:34:09;11.63;;;9.63;;
34184;SDS011;20454;48.100;11.776;2023-02-15T09:36:37;10.77;;;9.68;;
34184;SDS011;20454;48.100;11.776;2023-02-15T09:51:26;10.27;;;8.98;;
34184;SDS011;20454;48.100;11.776;2023-02-15T09:54:14;11.05;;;9.77;;
34184;SDS011;20454;48.100;11.776;2023-02-15T10:00:58;11.27;;;9.60;;
34184;SDS011;20454;48.100;11.776;2023-02-15T10:09:09;11.02;;;9.93;;
34184;SDS011;20454;48.100;11.776;2023-02-15T10:26:34;8.02;;;7.28;;
34184;SDS011;20454;48.100;11.776;2023-02-15T10:32:24;8.55;;;7.82;;
34184;SDS011;20454;48.100;11.776;2023-02-15T10:34:57;9.07;;;8.32;;
34184;SDS011;20454;48.100;11.776;2023-02-15T10:51:11;7.88;;;7.05;;
34184;SDS011;20454;48.100;11.776;2023-02-15T10:57:21;8.52;;;7.63;;
34184;SDS011;20454;48.100;11.776;2023-02-15T11:00:33;8.15;;;7.45;;
34184;SDS011;20454;48.100;11.776;2023-02-15T11:06:20;8.10;;;7.18;;
34184;SDS011;20454;48.100;11.776;2023-02-15T11:08:51;6.97;;;6.40;;
34184;SDS011;20454;48.100;11.776;2023-02-15T11:11:26;7.40;;;6.80;;
34184;SDS011;20454;48.100;11.776;2023-02-15T11:14:01;7.50;;;7.00;;
34184;SDS011;20454;48.100;11.776;2023-02-15T11:16:36;7.70;;;7.00;;
34184;SDS011;20454;48.100;11.776;2023-02-15T11:19:08;8.70;;;8.00;;
34184;SDS011;20454;48.100;11.776;2023-02-15T11:21:46;7.80;;;7.10;;
34184;SDS011;20454;48.100;11.776;2023-02-15T11:24:17;9.25;;;8.48;;
34184;SDS011;20454;48.100;11.776;2023-02-15T11:26:53;7.97;;;7.28;;
34184;SDS011;20454;48.100;11.776;2023-02-15T11:29:34;7.63;;;7.03;;
34184;SDS011;20454;48.100;11.776;2023-02-15T11:32:19;7.85;;;7.10;;
34184;SDS011;20454;48.100;11.776;2023-02-15T11:35:04;7.93;;;7.32;;
34184;SDS011;20454;48.100;11.776;2023-02-15T11:37:57;8.20;;;7.50;;
34184;SDS011;20454;48.100;11.776;2023-02-15T11:40:54;8.23;;;7.53;;
34184;SDS011;20454;48.100;11.776;2023-02-15T11:43:36;8.00;;;7.13;;
34184;SDS011;20454;48.100;11.776;2023-02-15T11:46:26;6.97;;;6.38;;
34184;SDS011;20454;48.100;11.776;2023-02-15T11:48:52;7.90;;;7.25;;
34184;SDS011;20454;48.100;11.776;2023-02-15T11:51:19;8.45;;;7.70;;
34184;SDS011;20454;48.100;11.776;2023-02-15T11:53:47;7.20;;;6.60;;
34184;SDS011;20454;48.100;11.776;2023-02-15T11:56:18;7.80;;;7.20;;
34184;SDS011;20454;48.100;11.776;2023-02-15T12:01:33;8.25;;;7.55;;
34184;SDS011;20454;48.100;11.776;2023-02-15T12:04:15;12.52;;;7.90;;
34184;SDS011;20454;48.100;11.776;2023-02-15T12:07:10;9.00;;;8.13;;
34184;SDS011;20454;48.100;11.776;2023-02-15T12:13:15;7.88;;;6.75;;
34184;SDS011;20454;48.100;11.776;2023-02-15T12:15:45;7.72;;;7.03;;
34184;SDS011;20454;48.100;11.776;2023-02-15T12:21:02;8.52;;;7.75;;
34184;SDS011;20454;48.100;11.776;2023-02-15T12:23:48;7.22;;;6.65;;
34184;SDS011;20454;48.100;11.776;2023-02-15T12:26:24;8.38;;;7.68;;
34184;SDS011;20454;48.100;11.776;2023-02-15T12:31:21;6.72;;;6.22;;
34184;SDS011;20454;48.100;11.776;2023-02-15T12:34:09;8.38;;;7.57;;
34184;SDS011;20454;48.100;11.776;2023-02-15T12:36:46;8.10;;;7.40;;
34184;SDS011;20454;48.100;11.776;2023-02-15T12:39:27;8.02;;;7.38;;
34184;SDS011;20454;48.100;11.776;2023-02-15T12:44:22;6.95;;;6.45;;
34184;SDS011;20454;48.100;11.776;2023-02-15T12:49:27;8.55;;;7.75;;
34184;SDS011;20454;48.100;11.776;2023-02-15T12:51:59;7.72;;;7.15;;
34184;SDS011;20454;48.100;11.776;2023-02-15T12:54:49;7.57;;;6.97;;
34184;SDS011;20454;48.100;11.776;2023-02-15T12:57:26;8.52;;;7.82;;
34184;SDS011;20454;48.100;11.776;2023-02-15T12:59:57;9.27;;;8.32;;
34184;SDS011;20454;48.100;11.776;2023-02-15T13:08:12;9.25;;;7.85;;
34184;SDS011;20454;48.100;11.776;2023-02-15T13:14:37;8.10;;;7.03;;
34184;SDS011;20454;48.100;11.776;2023-02-15T13:16:57;8.88;;;8.10;;
34184;SDS011;20454;48.100;11.776;2023-02-15T13:22:08;8.35;;;7.70;;
34184;SDS011;20454;48.100;11.776;2023-02-15T13:24:48;8.98;;;8.07;;
34184;SDS011;20454;48.100;11.776;2023-02-15T13:27:20;7.15;;;6.55;;
34184;SDS011;20454;48.100;11.776;2023-02-15T13:29:55;8.77;;;7.97;;
34184;SDS011;20454;48.100;11.776;2023-02-15T13:35:03;8.02;;;7.32;;
34184;SDS011;20454;48.100;11.776;2023-02-15T13:45:35;9.35;;;8.65;;
34184;SDS011;20454;48.100;11.776;2023-02-15T13:57:25;12.18;;;9.40;;
34184;SDS011;20454;48.100;11.776;2023-02-15T14:03:40;9.70;;;8.80;;
34184;SDS011;20454;48.100;11.776;2023-02-15T14:06:49;11.43;;;8.80;;
34184;SDS011;20454;48.100;11.776;2023-02-15T14:15:21;11.30;;;10.20;;
34184;SDS011;20454;48.100;11.776;2023-02-15T14:27:42;11.70;;;9.93;;
34184;SDS011;20454;48.100;11.776;2023-02-15T14:30:34;11.48;;;10.45;;
34184;SDS011;20454;48.100;11.776;2023-02-15T14:35:39;13.60;;;10.82;;
34184;SDS011;20454;48.100;11.776;2023-02-15T14:38:13;11.13;;;10.00;;
34184;SDS011;20454;48.100;11.776;2023-02-15T14:41:04;12.95;;;10.70;;
34184;SDS011;20454;48.100;11.776;2023-02-15T14:44:00;11.60;;;10.57;;
34184;SDS011;20454;48.100;11.776;2023-02-15T14:46:54;13.15;;;10.00;;
34184;SDS011;20454;48.100;11.776;2023-02-15T14:49:51;11.35;;;10.25;;
34184;SDS011;20454;48.100;11.776;2023-02-15T14:52:17;14.25;;;10.90;;
34184;SDS011;20454;48.100;11.776;2023-02-15T15:07:24;13.65;;;11.30;;
34184;SDS011;20454;48.100;11.776;2023-02-15T15:10:04;14.95;;;13.18;;
34184;SDS011;20454;48.100;11.776;2023-02-15T15:12:46;17.20;;;13.50;;
34184;SDS011;20454;48.100;11.776;2023-02-15T15:25:42;15.10;;;13.23;;
34184;SDS011;20454;48.100;11.776;2023-02-15T15:31:00;20.35;;;13.55;;
34184;SDS011;20454;48.100;11.776;2023-02-15T15:51:11;21.45;;;16.10;;
34184;SDS011;20454;48.100;11.776;2023-02-15T15:53:46;22.52;;;15.52;;
34184;SDS011;20454;48.100;11.776;2023-02-15T15:56:19;18.60;;;14.63;;
34184;SDS011;20454;48.100;11.776;2023-02-15T15:58:54;17.75;;;15.82;;
34184;SDS011;20454;48.100;11.776;2023-02-15T16:01:41;24.08;;;17.13;;
34184;SDS011;20454;48.100;11.776;2023-02-15T16:04:13;20.83;;;15.75;;
34184;SDS011;20454;48.100;11.776;2023-02-15T16:06:50;22.30;;;14.90;;
34184;SDS011;20454;48.100;11.776;2023-02-15T16:09:17;23.23;;;16.48;;
34184;SDS011;20454;48.100;11.776;2023-02-15T16:11:50;21.10;;;17.45;;
34184;SDS011;20454;48.100;11.776;2023-02-15T16:14:26;18.25;;;12.80;;
34184;SDS011;20454;48.100;11.776;2023-02-15T16:17:03;21.70;;;14.63;;
34184;SDS011;20454;48.100;11.776;2023-02-15T16:19:32;18.08;;;14.77;;
34184;SDS011;20454;48.100;11.776;2023-02-15T16:22:14;17.70;;;14.82;;
34184;SDS011;20454;48.100;11.776;2023-02-15T16:27:44;21.13;;;15.48;;
34184;SDS011;20454;48.100;11.776;2023-02-15T16:30:31;25.45;;;16.30;;
34184;SDS011;20454;48.100;11.776;2023-02-15T16:35:55;22.13;;;15.40;;
34184;SDS011;20454;48.100;11.776;2023-02-15T16:39:07;18.33;;;15.25;;
34184;SDS011;20454;48.100;11.776;2023-02-15T16:41:33;23.90;;;16.83;;
34184;SDS011;20454;48.100;11.776;2023-02-15T16:44:00;19.92;;;15.23;;
34184;SDS011;20454;48.100;11.776;2023-02-15T16:46:41;24.08;;;16.40;;
34184;SDS011;20454;48.100;11.776;2023-02-15T16:49:22;25.20;;;17.42;;
34184;SDS011;20454;48.100;11.776;2023-02-15T16:51:58;37.20;;;22.23;;
34184;SDS011;20454;48.100;11.776;2023-02-15T16:54:34;28.85;;;19.60;;
34184;SDS011;20454;48.100;11.776;2023-02-15T16:57:01;23.33;;;17.30;;
34184;SDS011;20454;48.100;11.776;2023-02-15T16:59:40;21.33;;;15.35;;
34184;SDS011;20454;48.100;11.776;2023-02-15T17:02:12;19.55;;;15.70;;
34184;SDS011;20454;48.100;11.776;2023-02-15T17:04:45;35.70;;;25.75;;
34184;SDS011;20454;48.100;11.776;2023-02-15T17:07:32;29.33;;;20.90;;
34184;SDS011;20454;48.100;11.776;2023-02-15T17:09:58;27.75;;;22.02;;
34184;SDS011;20454;48.100;11.776;2023-02-15T17:18:16;39.42;;;28.85;;
34184;SDS011;20454;48.100;11.776;2023-02-15T17:20:48;28.10;;;21.13;;
34184;SDS011;20454;48.100;11.776;2023-02-15T17:23:35;26.70;;;17.90;;
34184;SDS011;20454;48.100;11.776;2023-02-15T17:26:15;29.20;;;17.48;;
34184;SDS011;20454;48.100;11.776;2023-02-15T17:31:48;24.95;;;19.92;;
34184;SDS011;20454;48.100;11.776;2023-02-15T17:37:10;23.30;;;16.92;;
34184;SDS011;20454;48.100;11.776;2023-02-15T17:39:59;38.90;;;20.52;;
34184;SDS011;20454;48.100;11.776;2023-02-15T17:42:30;25.73;;;17.92;;
34184;SDS011;20454;48.100;11.776;2023-02-15T17:44:56;37.00;;;18.25;;
34184;SDS011;20454;48.100;11.776;2023-02-15T17:47:22;21.65;;;14.40;;
34184;SDS011;20454;48.100;11.776;2023-02-15T17:49:51;23.20;;;16.17;;
34184;SDS011;20454;48.100;11.776;2023-02-15T20:22:36;24.88;;;18.95;;
34184;SDS011;20454;48.100;11.776;2023-02-15T20:25:02;26.08;;;18.42;;
34184;SDS011;20454;48.100;11.776;2023-02-15T20:27:28;26.42;;;18.60;;
34184;SDS011;20454;48.100;11.776;2023-02-15T20:29:53;22.70;;;18.45;;
34184;SDS011;20454;48.100;11.776;2023-02-15T20:32:22;25.73;;;19.90;;
34184;SDS011;20454;48.100;11.776;2023-02-15T20:34:48;25.58;;;19.58;;
34184;SDS011;20454;48.100;11.776;2023-02-15T20:37:19;24.95;;;18.35;;
34184;SDS011;20454;48.100;11.776;2023-02-15T20:39:50;21.00;;;17.08;;
34184;SDS011;20454;48.100;11.776;2023-02-15T20:42:16;23.95;;;19.25;;
34184;SDS011;20454;48.100;11.776;2023-02-15T20:44:43;23.13;;;19.02;;
34184;SDS011;20454;48.100;11.776;2023-02-15T20:47:09;29.58;;;20.25;;
34184;SDS011;20454;48.100;11.776;2023-02-15T20:49:34;26.25;;;20.00;;
34184;SDS011;20454;48.100;11.776;2023-02-15T20:52:00;31.85;;;20.70;;
34184;SDS011;20454;48.100;11.776;2023-02-15T20:54:34;29.55;;;20.63;;
34184;SDS011;20454;48.100;11.776;2023-02-15T20:57:00;27.38;;;22.10;;
34184;SDS011;20454;48.100;11.776;2023-02-15T20:59:30;24.35;;;19.33;;
34184;SDS011;20454;48.100;11.776;2023-02-15T21:02:19;27.52;;;20.23;;
34184;SDS011;20454;48.100;11.776;2023-02-15T21:04:47;28.75;;;20.40;;
34184;SDS011;20454;48.100;11.776;2023-02-15T21:07:14;28.27;;;21.70;;
34184;SDS011;20454;48.100;11.776;2023-02-15T21:09:42;31.08;;;23.05;;
34184;SDS011;20454;48.100;11.776;2023-02-15T21:12:11;28.27;;;21.70;;
34184;SDS011;20454;48.100;11.776;2023-02-15T21:14:40;30.63;;;21.35;;
34184;SDS011;20454;48.100;11.776;2023-02-15T21:17:08;28.63;;;19.83;;
34184;SDS011;20454;48.100;11.776;2023-02-15T21:19:36;31.85;;;21.90;;
34184;SDS011;20454;48.100;11.776;2023-02-15T21:22:02;33.05;;;22.08;;
34184;SDS011;20454;48.100;11.776;2023-02-15T21:24:28;35.45;;;22.58;;
34184;SDS011;20454;48.100;11.776;2023-02-15T21:26:55;33.83;;;21.23;;
34184;SDS011;20454;48.100;11.776;2023-02-15T21:29:26;35.47;;;21.25;;
34184;SDS011;20454;48.100;11.776;2023-02-15T21:31:54;29.95;;;20.20;;
34184;SDS011;20454;48.100;11.776;2023-02-15T21:34:24;38.13;;;21.20;;
34184;SDS011;20454;48.100;11.776;2023-02-15T21:36:50;36.35;;;22.02;;
34184;SDS011;20454;48.100;11.776;2023-02-15T21:39:20;37.72;;;23.83;;
34184;SDS011;20454;48.100;11.776;2023-02-15T21:41:49;39.95;;;24.00;;
34184;SDS011;20454;48.100;11.776;2023-02-15T21:44:36;36.25;;;22.55;;
34184;SDS011;20454;48.100;11.776;2023-02-15T21:47:24;34.15;;;23.08;;
34184;SDS011;20454;48.100;11.776;2023-02-15T21:50:12;39.17;;;26.10;;
34184;SDS011;20454;48.100;11.776;2023-02-15T21:53:06;43.88;;;26.75;;
34184;SDS011;20454;48.100;11.776;2023-02-15T21:55:36;35.63;;;22.90;;
34184;SDS011;20454;48.100;11.776;2023-02-15T21:58:02;36.35;;;24.13;;
34184;SDS011;20454;48.100;11.776;2023-02-15T22:00:28;35.53;;;23.13;;
34184;SDS011;20454;48.100;11.776;2023-02-15T22:02:55;31.98;;;21.60;;
34184;SDS011;20454;48.100;11.776;2023-02-15T22:05:25;37.20;;;22.75;;
34184;SDS011;20454;48.100;11.776;2023-02-15T22:07:54;27.23;;;19.50;;
34184;SDS011;20454;48.100;11.776;2023-02-15T22:10:27;29.10;;;19.08;;
34184;SDS011;20454;48.100;11.776;2023-02-15T22:12:55;25.08;;;17.38;;
34184;SDS011;20454;48.100;11.776;2023-02-15T22:15:25;25.13;;;18.83;;
34184;SDS011;20454;48.100;11.776;2023-02-15T22:17:55;29.25;;;17.58;;
34184;SDS011;20454;48.100;11.776;2023-02-15T22:20:21;31.73;;;19.73;;
34184;SDS011;20454;48.100;11.776;2023-02-15T22:22:49;36.47;;;21.42;;
34184;SDS011;20454;48.100;11.776;2023-02-15T22:25:18;27.23;;;19.75;;
34184;SDS011;20454;48.100;11.776;2023-02-15T22:27:47;25.33;;;17.17;;
34184;SDS011;20454;48.100;11.776;2023-02-15T22:32:51;26.70;;;17.42;;
34184;SDS011;20454;48.100;11.776;2023-02-15T22:35:20;26.55;;;18.77;;
34184;SDS011;20454;48.100;11.776;2023-02-15T22:37:52;27.67;;;16.65;;
34184;SDS011;20454;48.100;11.776;2023-02-15T22:40:19;18.33;;;14.90;;
34184;SDS011;20454;48.100;11.776;2023-02-15T22:42:47;18.23;;;14.32;;
34184;SDS011;20454;48.100;11.776;2023-02-15T22:45:17;17.63;;;14.38;;
34184;SDS011;20454;48.100;11.776;2023-02-15T22:47:46;21.40;;;16.85;;
34184;SDS011;20454;48.100;11.776;2023-02-15T22:50:19;23.30;;;17.05;;
34184;SDS011;20454;48.100;11.776;2023-02-15T22:52:54;20.33;;;16.92;;
34184;SDS011;20454;48.100;11.776;2023-02-15T22:55:21;19.92;;;15.45;;
34184;SDS011;20454;48.100;11.776;2023-02-15T22:57:50;18.23;;;14.25;;
34184;SDS011;20454;48.100;11.776;2023-02-15T23:00:30;16.17;;;13.32;;
34184;SDS011;20454;48.100;11.776;2023-02-15T23:03:09;17.60;;;14.02;;
34184;SDS011;20454;48.100;11.776;2023-02-15T23:05:50;19.58;;;13.23;;
34184;SDS011;20454;48.100;11.776;2023-02-15T23:08:16;20.05;;;13.88;;
34184;SDS011;20454;48.100;11.776;2023-02-15T23:10:43;16.88;;;13.25;;
34184;SDS011;20454;48.100;11.776;2023-02-15T23:13:14;17.65;;;13.15;;
34184;SDS011;20454;48.100;11.776;2023-02-15T23:15:49;19.27;;;13.38;;
34184;SDS011;20454;48.100;11.776;2023-02-15T23:18:22;22.00;;;16.50;;
34184;SDS011;20454;48.100;11.776;2023-02-15T23:20:56;22.00;;;14.63;;
34184;SDS011;20454;48.100;11.776;2023-02-15T23:23:29;20.85;;;15.90;;
34184;SDS011;20454;48.100;11.776;2023-02-15T23:26:00;24.83;;;15.23;;
34184;SDS011;20454;48.100;11.776;2023-02-15T23:28:28;21.15;;;14.40;;
34184;SDS011;20454;48.100;11.776;2023-02-15T23:30:59;14.20;;;12.45;;
34184;SDS011;20454;48.100;11.776;2023-02-15T23:33:27;18.15;;;13.70;;
34184;SDS011;20454;48.100;11.776;2023-02-15T23:35:57;20.27;;;14.73;;
34184;SDS011;20454;48.100;11.776;2023-02-15T23:38:24;20.92;;;15.43;;
34184;SDS011;20454;48.100;11.776;2023-02-15T23:40:54;28.38;;;16.23;;
34184;SDS011;20454;48.100;11.776;2023-02-15T23:43:43;17.17;;;14.43;;
34184;SDS011;20454;48.100;11.776;2023-02-15T23:48:58;22.00;;;14.60;;
34184;SDS011;20454;48.100;11.776;2023-02-15T23:51:27;13.32;;;11.93;;
34184;SDS011;20454;48.100;11.776;2023-02-15T23:53:55;17.33;;;11.88;;
34184;SDS011;20454;48.100;11.776;2023-02-15T23:56:22;17.00;;;12.63;;
34184;SDS011;20454;48.100;11.776;2023-02-15T23:58:48;21.10;;;13.90;;
